createdAt,value
2017-11-26T10:34:25.531Z,70
2017-11-26T10:35:35.274Z,65
2017-11-26T10:36:45.280Z,65
2017-11-26T10:37:55.295Z,65
2017-11-26T10:39:05.046Z,60
2017-11-26T10:40:14.546Z,60
2017-11-26T10:41:24.581Z,50
2017-11-26T10:42:34.372Z,50
2017-11-26T10:43:44.392Z,55
2017-11-26T10:44:54.146Z,45
2017-11-26T10:46:04.331Z,40
2017-11-26T10:47:14.385Z,35
2017-11-26T10:48:24.119Z,30
2017-11-26T10:49:33.893Z,25
2017-11-26T10:50:43.908Z,35
2017-11-26T10:51:53.390Z,40
2017-11-26T10:53:03.503Z,45
2017-11-26T10:54:13.002Z,50
2017-11-26T10:55:22.758Z,50
2017-11-26T10:56:32.496Z,45
2017-11-26T10:57:41.975Z,40
2017-11-26T10:58:51.744Z,45
2017-11-26T11:00:01.491Z,55
2017-11-26T11:01:11.502Z,60
2017-11-26T11:02:21.259Z,55
2017-11-26T11:03:31.284Z,55
2017-11-26T11:04:41.022Z,55
2017-11-26T11:05:50.230Z,50
2017-11-26T11:07:00.248Z,60
2017-11-26T11:08:09.723Z,65
2017-11-26T11:09:19.476Z,60
2017-11-26T11:10:28.948Z,60
2017-11-26T11:11:38.685Z,65
2017-11-26T11:12:48.686Z,60
2017-11-26T11:13:58.705Z,60
2017-11-26T11:15:08.439Z,65
2017-11-26T11:16:17.907Z,60
2017-11-26T11:17:27.924Z,65
2017-11-26T11:18:37.676Z,65
2017-11-26T11:19:47.733Z,65
2017-11-26T11:20:57.768Z,65
2017-11-26T11:22:07.236Z,65
2017-11-26T11:23:16.702Z,65
2017-11-26T11:24:25.902Z,65
2017-11-26T11:25:35.639Z,65
2017-11-26T11:26:45.649Z,65
2017-11-26T11:27:55.353Z,60
2017-11-26T11:29:05.425Z,55
2017-11-26T11:30:15.496Z,55
2017-11-26T11:31:25.240Z,50
2017-11-26T11:32:35.254Z,55
2017-11-26T11:33:45.036Z,45
2017-11-26T11:34:54.791Z,40
2017-11-26T11:36:04.000Z,40
2017-11-26T11:37:13.738Z,50
2017-11-26T11:38:23.746Z,50
2017-11-26T11:39:33.774Z,55
2017-11-26T11:40:43.242Z,60
2017-11-26T11:41:53.249Z,60
2017-11-26T11:43:03.254Z,60
2017-11-26T11:44:13.344Z,65
2017-11-26T11:45:23.088Z,75
2017-11-26T11:46:33.125Z,75
2017-11-26T11:47:43.148Z,75
2017-11-26T11:48:52.936Z,75
2017-11-26T11:50:02.676Z,80
2017-11-26T11:51:12.427Z,80
2017-11-26T11:52:22.441Z,90
2017-11-26T11:53:32.200Z,95
2017-11-26T11:54:42.211Z,75
2017-11-26T11:55:52.372Z,75
2017-11-26T11:57:02.123Z,95
2017-11-26T11:58:12.143Z,85
2017-11-26T11:59:21.893Z,70
2017-11-26T12:00:31.104Z,70
2017-11-26T12:01:40.860Z,65
2017-11-26T12:02:50.330Z,60
2017-11-26T12:04:00.335Z,55
2017-11-26T12:05:10.080Z,45
2017-11-26T12:06:19.816Z,40
2017-11-26T12:07:29.301Z,35
2017-11-26T12:08:39.310Z,40
2017-11-26T12:09:49.066Z,50
2017-11-26T12:10:58.263Z,50
2017-11-26T12:12:08.008Z,50
2017-11-26T12:13:18.026Z,50
2017-11-26T12:14:28.051Z,45
2017-11-26T12:15:37.532Z,45
2017-11-26T12:16:47.417Z,40
2017-11-26T12:17:57.481Z,40
2017-11-26T12:19:07.219Z,45
2017-11-26T12:20:16.423Z,40
2017-11-26T12:21:26.445Z,40
2017-11-26T12:22:35.946Z,45
2017-11-26T12:23:45.751Z,45
2017-11-26T12:24:55.524Z,45
2017-11-26T12:26:05.563Z,35
2017-11-26T12:27:15.321Z,35
2017-11-26T12:28:24.835Z,35
2017-11-26T12:29:34.865Z,35
2017-11-26T12:30:44.336Z,40
2017-11-26T12:31:54.375Z,45
2017-11-26T12:33:04.429Z,45
2017-11-26T12:34:14.458Z,50
2017-11-26T12:35:24.492Z,55
2017-11-26T12:36:34.600Z,65
2017-11-26T12:37:44.338Z,65
2017-11-26T12:38:54.092Z,60
2017-11-26T12:40:04.113Z,60
2017-11-26T12:41:14.125Z,60
2017-11-26T12:42:23.858Z,55
2017-11-26T12:43:33.593Z,60
2017-11-26T12:44:43.055Z,55
2017-11-26T12:45:53.116Z,55
2017-11-26T12:47:03.124Z,55
2017-11-26T12:48:13.141Z,60
2017-11-26T12:49:22.888Z,55
2017-11-26T12:50:32.892Z,55
2017-11-26T12:51:42.361Z,50
2017-11-26T12:52:52.106Z,45
2017-11-26T12:54:02.111Z,50
2017-11-26T12:55:11.580Z,55
2017-11-26T12:56:21.336Z,50
2017-11-26T12:57:31.346Z,45
2017-11-26T12:58:41.399Z,40
2017-11-26T12:59:51.198Z,35
2017-11-26T13:01:01.265Z,40
2017-11-26T13:02:11.038Z,45
2017-11-26T13:03:20.773Z,45
2017-11-26T13:04:30.843Z,45
2017-11-26T13:05:40.586Z,50
2017-11-26T13:06:50.611Z,50
2017-11-26T13:08:00.145Z,55
2017-11-26T13:09:09.944Z,60
2017-11-26T13:10:19.417Z,55
2017-11-26T13:11:29.004Z,70
2017-11-26T13:12:39.023Z,45
2017-11-26T13:13:49.051Z,40
2017-11-26T13:14:59.063Z,40
2017-11-26T13:16:08.815Z,40
2017-11-26T13:17:18.585Z,35
2017-11-26T13:18:28.589Z,35
2017-11-26T13:19:38.335Z,35
2017-11-26T13:20:48.361Z,30
2017-11-26T13:21:58.363Z,30
2017-11-26T13:23:08.102Z,35
2017-11-26T13:24:18.155Z,40
2017-11-26T13:25:28.063Z,40
2017-11-26T13:26:38.105Z,40
2017-11-26T13:27:48.239Z,50
2017-11-26T13:28:58.249Z,50
2017-11-26T13:30:08.266Z,50
2017-11-26T13:31:17.200Z,50
2017-11-26T13:32:27.223Z,50
2017-11-26T13:33:36.988Z,50
2017-11-26T13:34:47.005Z,50
2017-11-26T13:35:56.748Z,55
2017-11-26T13:37:06.487Z,55
2017-11-26T13:38:16.239Z,60
2017-11-26T13:39:25.975Z,55
2017-11-26T13:40:36.010Z,55
2017-11-26T13:41:45.746Z,55
2017-11-26T13:42:55.771Z,50
2017-11-26T13:44:06.134Z,50
2017-11-26T13:45:16.164Z,45
2017-11-26T13:46:26.181Z,45
2017-11-26T13:47:36.011Z,45
2017-11-26T13:48:46.054Z,50
2017-11-26T13:49:55.789Z,50
2017-11-26T13:51:05.533Z,50
2017-11-26T13:52:15.322Z,50
2017-11-26T13:53:25.356Z,50
2017-11-26T13:54:34.818Z,55
2017-11-26T13:55:44.577Z,55
2017-11-26T13:56:53.786Z,50
2017-11-26T13:58:03.619Z,55
2017-11-26T13:59:13.094Z,50
2017-11-26T14:00:22.837Z,50
2017-11-26T14:01:32.839Z,50
2017-11-26T14:02:42.579Z,45
2017-11-26T14:03:52.499Z,40
2017-11-26T14:05:02.575Z,40
2017-11-26T14:06:12.044Z,45
2017-11-26T14:07:22.072Z,40
2017-11-26T14:08:31.313Z,40
2017-11-26T14:09:41.081Z,40
2017-11-26T14:10:50.660Z,35
2017-11-26T14:12:00.680Z,35
2017-11-26T14:13:10.809Z,40
2017-11-26T14:14:20.577Z,40
2017-11-26T14:15:30.090Z,40
2017-11-26T14:16:40.133Z,40
2017-11-26T14:17:49.888Z,45
2017-11-26T14:18:59.908Z,45
2017-11-26T14:20:09.656Z,45
2017-11-26T14:21:19.447Z,45
2017-11-26T14:22:29.260Z,45
2017-11-26T14:23:39.285Z,45
2017-11-26T14:24:49.302Z,45
2017-11-26T14:25:58.511Z,45
2017-11-26T14:27:08.259Z,40
2017-11-26T14:28:17.731Z,35
2017-11-26T14:29:27.486Z,35
2017-11-26T14:30:37.220Z,30
2017-11-26T14:31:46.965Z,30
2017-11-26T14:32:56.981Z,30
2017-11-26T14:34:06.988Z,25
2017-11-26T14:35:17.025Z,25
2017-11-26T14:36:27.041Z,25
2017-11-26T14:37:37.069Z,20
2017-11-26T14:38:46.542Z,20
2017-11-26T14:39:56.018Z,20
2017-11-26T14:41:05.793Z,15
2017-11-26T14:42:15.530Z,15
2017-11-26T14:43:25.317Z,10
2017-11-26T14:44:35.415Z,10
2017-11-26T14:45:45.453Z,10
2017-11-26T14:46:55.660Z,10
2017-11-26T14:48:05.407Z,15
2017-11-26T14:49:14.627Z,15
2017-11-26T14:50:24.452Z,15
2017-11-26T14:51:34.001Z,15
2017-11-26T14:52:44.079Z,15
2017-11-26T14:53:54.159Z,15
2017-11-26T14:55:04.310Z,10
2017-11-26T14:56:14.063Z,10
2017-11-26T14:57:23.272Z,10
2017-11-26T14:58:32.761Z,10
2017-11-26T14:59:42.567Z,10
2017-11-26T15:00:52.082Z,10
2017-11-26T15:02:02.169Z,10
2017-11-26T15:03:11.902Z,10
2017-11-26T15:04:21.396Z,10
2017-11-26T15:05:31.433Z,5
2017-11-26T15:06:41.213Z,5
2017-11-26T15:07:51.243Z,5
2017-11-26T15:09:00.743Z,5
2017-11-26T15:10:10.910Z,5
2017-11-26T15:11:20.759Z,5
2017-11-26T15:12:30.276Z,5
2017-11-26T15:13:39.829Z,5
2017-11-26T15:14:49.322Z,5
2017-11-26T15:15:58.858Z,5
2017-11-26T15:17:08.869Z,5
2017-11-26T15:18:18.701Z,5
2017-11-26T15:19:28.247Z,5
2017-11-26T15:20:38.028Z,5
2017-11-26T15:21:48.114Z,5
2017-11-26T15:22:57.601Z,0
2017-11-26T15:24:07.654Z,0
2017-11-26T15:25:17.176Z,0
2017-11-26T15:26:26.658Z,0
2017-11-26T15:27:36.159Z,0
2017-11-26T15:28:45.905Z,0
2017-11-26T15:29:56.006Z,0
2017-11-26T15:31:05.769Z,0
2017-11-26T15:32:15.863Z,0
2017-11-26T15:33:25.358Z,0
2017-11-26T15:34:34.586Z,0
2017-11-26T15:35:44.617Z,0
2017-11-26T15:36:54.374Z,0
2017-11-26T15:38:03.881Z,0
2017-11-26T15:39:12.822Z,0
2017-11-26T15:40:22.613Z,0
2017-11-26T15:41:32.649Z,0
2017-11-26T15:42:42.426Z,0
2017-11-26T15:43:52.184Z,0
2017-11-26T15:45:02.194Z,0
2017-11-26T15:46:11.496Z,0
2017-11-26T15:47:21.252Z,0
2017-11-26T15:48:30.991Z,0
2017-11-26T15:49:40.461Z,0
2017-11-26T15:50:50.488Z,0
2017-11-26T15:52:00.891Z,0
2017-11-26T15:53:11.084Z,0
2017-11-26T15:54:21.643Z,0
2017-11-26T15:55:31.242Z,0
2017-11-26T15:56:40.794Z,0
2017-11-26T15:57:51.280Z,0
2017-11-26T15:59:01.108Z,0
2017-11-26T16:00:11.306Z,0
2017-11-26T16:01:21.457Z,0
2017-11-26T16:02:31.668Z,0
2017-11-26T16:03:42.126Z,0
2017-11-26T16:04:52.673Z,0
2017-11-26T16:06:03.552Z,0
2017-11-26T16:07:14.089Z,0
2017-11-26T16:08:24.586Z,0
2017-11-26T16:09:34.781Z,0
2017-11-26T16:10:45.246Z,0
2017-11-26T16:11:54.220Z,0
2017-11-26T16:13:04.821Z,0
2017-11-26T16:14:14.792Z,0
2017-11-26T16:15:25.062Z,0
2017-11-26T16:16:35.292Z,0
2017-11-26T16:17:46.225Z,0
2017-11-26T16:18:56.439Z,0
2017-11-26T16:20:06.847Z,0
2017-11-26T16:21:18.088Z,0
2017-11-26T16:22:28.710Z,0
2017-11-26T16:23:38.908Z,0
2017-11-26T16:24:49.907Z,0
2017-11-26T16:26:00.008Z,0
2017-11-26T16:27:10.166Z,0
2017-11-26T16:28:20.571Z,0
2017-11-26T16:29:29.831Z,0
2017-11-26T16:30:39.547Z,0
2017-11-26T16:31:49.440Z,0
2017-11-26T16:32:59.307Z,0
2017-11-26T16:34:09.277Z,0
2017-11-26T16:35:19.460Z,0
2017-11-26T16:36:30.319Z,0
2017-11-26T16:37:40.160Z,0
2017-11-26T16:38:50.737Z,0
2017-11-26T16:40:01.301Z,0
2017-11-26T16:41:11.552Z,0
2017-11-26T16:42:22.042Z,0
2017-11-26T16:43:32.477Z,0
2017-11-26T16:44:42.386Z,0
2017-11-26T16:45:52.442Z,0
2017-11-26T16:47:02.683Z,0
2017-11-26T16:48:12.518Z,0
2017-11-26T16:49:22.630Z,0
2017-11-26T16:50:33.076Z,0
2017-11-26T16:51:42.851Z,0
2017-11-26T16:52:53.011Z,0
2017-11-26T16:54:02.935Z,0
2017-11-26T16:55:12.901Z,0
2017-11-26T16:56:23.316Z,0
2017-11-26T16:57:33.435Z,0
2017-11-26T16:58:43.178Z,0
2017-11-26T16:59:53.405Z,0
2017-11-26T17:01:03.336Z,0
2017-11-26T17:02:13.080Z,0
2017-11-26T17:03:23.207Z,0
2017-11-26T17:04:33.794Z,0
2017-11-26T17:05:44.204Z,0
2017-11-26T17:06:54.643Z,0
2017-11-26T17:08:04.844Z,0
2017-11-26T17:09:14.592Z,0
2017-11-26T17:10:24.304Z,0
2017-11-26T17:11:34.455Z,0
2017-11-26T17:12:44.789Z,0
2017-11-26T17:13:54.682Z,0
2017-11-26T17:15:04.760Z,0
2017-11-26T17:16:15.172Z,0
2017-11-26T17:17:25.378Z,0
2017-11-26T17:18:35.222Z,0
2017-11-26T17:19:45.587Z,0
2017-11-26T17:20:55.789Z,0
2017-11-26T17:22:06.230Z,0
2017-11-26T17:23:16.030Z,0
2017-11-26T17:24:25.855Z,0
2017-11-26T17:25:36.346Z,0
2017-11-26T17:26:46.510Z,0
2017-11-26T17:27:56.366Z,0
2017-11-26T17:29:06.579Z,0
2017-11-26T17:30:17.120Z,0
2017-11-26T17:31:27.683Z,0
2017-11-26T17:32:38.463Z,0
2017-11-26T17:33:48.665Z,0
2017-11-26T17:34:58.582Z,0
2017-11-26T17:36:08.822Z,0
2017-11-26T17:37:19.264Z,0
2017-11-26T17:38:29.134Z,0
2017-11-26T17:39:39.361Z,0
2017-11-26T17:40:49.861Z,0
2017-11-26T17:42:00.317Z,0
2017-11-26T17:43:10.089Z,0
2017-11-26T17:44:19.882Z,0
2017-11-26T17:45:30.398Z,0
2017-11-26T17:46:41.322Z,0
2017-11-26T17:47:51.722Z,0
2017-11-26T17:49:01.525Z,0
2017-11-26T17:50:12.442Z,0
2017-11-26T17:51:22.642Z,0
2017-11-26T17:52:32.924Z,0
2017-11-26T17:53:43.372Z,0
2017-11-26T17:54:53.296Z,0
2017-11-26T17:56:03.657Z,0
2017-11-26T17:57:14.260Z,0
2017-11-26T17:58:24.469Z,0
2017-11-26T17:59:34.549Z,0
2017-11-26T18:00:44.610Z,0
2017-11-26T18:01:54.478Z,0
2017-11-26T18:03:04.707Z,0
2017-11-26T18:04:14.837Z,0
2017-11-26T18:05:24.725Z,0
2017-11-26T18:06:34.204Z,0
2017-11-26T18:07:43.958Z,0
2017-11-26T18:08:53.988Z,0
2017-11-26T18:10:04.004Z,0
2017-11-26T18:11:13.769Z,0
2017-11-26T18:12:23.839Z,0
2017-11-26T18:13:33.765Z,0
2017-11-26T18:14:43.983Z,0
2017-11-26T18:15:53.790Z,0
2017-11-26T18:17:03.272Z,0
2017-11-26T18:18:13.096Z,0
2017-11-26T18:19:23.037Z,0
2017-11-26T18:20:32.796Z,0
2017-11-26T18:21:42.994Z,0
2017-11-26T18:22:52.768Z,0
2017-11-26T18:24:02.524Z,0
2017-11-26T18:25:12.376Z,0
2017-11-26T18:26:22.446Z,0
2017-11-26T18:27:32.469Z,0
2017-11-26T18:28:42.201Z,0
2017-11-26T18:29:51.982Z,0
2017-11-26T18:31:01.724Z,0
2017-11-26T18:32:11.798Z,0
2017-11-26T18:33:21.283Z,0
2017-11-26T18:34:30.789Z,0
2017-11-26T18:35:40.840Z,0
2017-11-26T18:36:51.015Z,0
2017-11-26T18:38:00.842Z,0
2017-11-26T18:39:10.637Z,0
2017-11-26T18:40:20.670Z,0
2017-11-26T18:41:29.902Z,0
2017-11-26T18:42:39.376Z,0
2017-11-26T18:43:49.191Z,0
2017-11-26T18:44:59.238Z,0
2017-11-26T18:46:09.292Z,0
2017-11-26T18:47:19.311Z,0
2017-11-26T18:48:28.771Z,0
2017-11-26T18:49:38.800Z,0
2017-11-26T18:50:48.535Z,0
2017-11-26T18:51:58.564Z,0
2017-11-26T18:53:08.034Z,0
2017-11-26T18:54:18.097Z,0
2017-11-26T18:55:27.863Z,0
2017-11-26T18:56:37.896Z,0
2017-11-26T18:57:47.254Z,0
2017-11-26T18:58:56.472Z,0
2017-11-26T19:00:06.231Z,0
2017-11-26T19:01:16.266Z,0
2017-11-26T19:02:26.286Z,0
2017-11-26T19:03:36.297Z,0
2017-11-26T19:04:46.334Z,0
2017-11-26T19:05:55.860Z,0
2017-11-26T19:07:05.347Z,0
2017-11-26T19:08:15.364Z,0
2017-11-26T19:09:25.165Z,0
2017-11-26T19:10:34.634Z,0
2017-11-26T19:11:44.660Z,0
2017-11-26T19:12:54.432Z,0
2017-11-26T19:14:03.927Z,0
2017-11-26T19:15:13.721Z,0
2017-11-26T19:16:23.200Z,0
2017-11-26T19:17:32.988Z,0
2017-11-26T19:18:43.021Z,0
2017-11-26T19:19:52.517Z,0
2017-11-26T19:21:02.347Z,0
2017-11-26T19:22:11.871Z,0
2017-11-26T19:23:21.653Z,0
2017-11-26T19:24:31.481Z,0
2017-11-26T19:25:41.543Z,0
2017-11-26T19:26:51.998Z,0
2017-11-26T19:28:01.872Z,0
2017-11-26T19:29:11.948Z,0
2017-11-26T19:30:21.438Z,0
2017-11-26T19:31:30.938Z,0
2017-11-26T19:32:40.958Z,0
2017-11-26T19:33:50.798Z,0
2017-11-26T19:35:00.740Z,0
2017-11-26T19:36:10.286Z,0
2017-11-26T19:37:20.091Z,0
2017-11-26T19:38:30.022Z,0
2017-11-26T19:39:39.677Z,0
2017-11-26T19:40:49.731Z,0
2017-11-26T19:41:58.988Z,0
2017-11-26T19:43:08.997Z,0
2017-11-26T19:44:18.797Z,0
2017-11-26T19:45:28.625Z,0
2017-11-26T19:46:38.703Z,0
2017-11-26T19:47:48.314Z,0
2017-11-26T19:48:58.385Z,0
2017-11-26T19:50:08.197Z,0
2017-11-26T19:51:17.459Z,0
2017-11-26T19:52:27.483Z,0
2017-11-26T19:53:37.021Z,0
2017-11-26T19:54:46.811Z,0
2017-11-26T19:55:56.380Z,0
2017-11-26T19:57:06.126Z,0
2017-11-26T19:58:15.717Z,0
2017-11-26T19:59:25.820Z,0
2017-11-26T20:00:35.598Z,0
2017-11-26T20:01:45.747Z,0
2017-11-26T20:02:55.817Z,0
2017-11-26T20:04:05.756Z,0
2017-11-26T20:05:15.232Z,0
2017-11-26T20:06:25.020Z,0
2017-11-26T20:07:35.117Z,0
2017-11-26T20:08:45.147Z,0
2017-11-26T20:09:55.186Z,0
2017-11-26T20:11:05.597Z,0
2017-11-26T20:12:15.639Z,0
2017-11-26T20:13:25.466Z,0
2017-11-26T20:14:35.572Z,0
2017-11-26T20:15:45.618Z,0
2017-11-26T20:16:55.680Z,0
2017-11-26T20:18:05.244Z,0
2017-11-26T20:19:15.095Z,0
2017-11-26T20:20:24.801Z,0
2017-11-26T20:21:35.081Z,0
2017-11-26T20:22:45.122Z,0
2017-11-26T20:23:55.253Z,0
2017-11-26T20:25:05.001Z,0
2017-11-26T20:26:14.836Z,0
2017-11-26T20:27:24.895Z,0
2017-11-26T20:28:35.478Z,0
2017-11-26T20:29:45.595Z,0
2017-11-26T20:30:55.657Z,0
2017-11-26T20:32:05.508Z,0
2017-11-26T20:33:15.545Z,0
2017-11-26T20:34:25.073Z,0
2017-11-26T20:35:34.913Z,0
2017-11-26T20:36:44.416Z,0
2017-11-26T20:37:54.267Z,0
2017-11-26T20:39:04.023Z,0
2017-11-26T20:40:14.047Z,0
2017-11-26T20:41:23.801Z,0
2017-11-26T20:42:33.289Z,0
2017-11-26T20:43:43.304Z,0
2017-11-26T20:44:53.055Z,0
2017-11-26T20:46:03.076Z,0
2017-11-26T20:47:12.856Z,0
2017-11-26T20:48:22.374Z,0
2017-11-26T20:49:32.436Z,0
2017-11-26T20:50:42.273Z,0
2017-11-26T20:51:52.350Z,0
2017-11-26T20:53:02.194Z,0
2017-11-26T20:54:11.993Z,0
2017-11-26T20:55:22.069Z,0
2017-11-26T20:56:31.999Z,0
2017-11-26T20:57:41.594Z,0
2017-11-26T20:58:51.672Z,0
2017-11-26T21:00:01.164Z,0
2017-11-26T21:01:10.636Z,0
2017-11-26T21:02:20.654Z,0
2017-11-26T21:03:30.549Z,0
2017-11-26T21:04:40.100Z,0
2017-11-26T21:05:49.912Z,0
2017-11-26T21:06:59.375Z,0
2017-11-26T21:08:09.151Z,0
2017-11-26T21:09:18.624Z,0
2017-11-26T21:10:28.639Z,0
2017-11-26T21:11:38.473Z,0
2017-11-26T21:12:48.354Z,0
2017-11-26T21:13:57.841Z,0
2017-11-26T21:15:07.608Z,0
2017-11-26T21:16:17.090Z,0
2017-11-26T21:17:27.127Z,0
2017-11-26T21:18:36.915Z,0
2017-11-26T21:19:46.991Z,0
2017-11-26T21:20:56.474Z,0
2017-11-26T21:22:06.232Z,0
2017-11-26T21:23:15.729Z,0
2017-11-26T21:24:25.742Z,0
2017-11-26T21:25:35.777Z,0
2017-11-26T21:26:45.537Z,0
2017-11-26T21:27:55.297Z,0
2017-11-26T21:29:05.379Z,0
2017-11-26T21:30:15.191Z,0
2017-11-26T21:31:24.779Z,0
2017-11-26T21:32:34.871Z,0
2017-11-26T21:33:44.638Z,0
2017-11-26T21:34:54.416Z,0
2017-11-26T21:36:04.446Z,0
2017-11-26T21:37:14.189Z,0
2017-11-26T21:38:23.945Z,0
2017-11-26T21:39:33.769Z,0
2017-11-26T21:40:43.785Z,0
2017-11-26T21:41:53.287Z,0
2017-11-26T21:43:03.324Z,0
2017-11-26T21:44:12.804Z,0
2017-11-26T21:45:22.532Z,0
2017-11-26T21:46:32.602Z,0
2017-11-26T21:47:42.615Z,0
2017-11-26T21:48:52.176Z,0
2017-11-26T21:50:01.946Z,0
2017-11-26T21:51:11.735Z,0
2017-11-26T21:52:21.861Z,0
2017-11-26T21:53:31.660Z,0
2017-11-26T21:54:41.722Z,0
2017-11-26T21:55:51.749Z,0
2017-11-26T21:57:01.813Z,0
2017-11-26T21:58:11.572Z,0
2017-11-26T21:59:21.415Z,0
2017-11-26T22:00:31.455Z,0
2017-11-26T22:01:41.470Z,0
2017-11-26T22:02:50.662Z,0
2017-11-26T22:04:00.791Z,0
2017-11-26T22:05:10.569Z,0
2017-11-26T22:06:20.605Z,0
2017-11-26T22:07:30.522Z,0
2017-11-26T22:08:40.285Z,0
2017-11-26T22:09:50.154Z,0
2017-11-26T22:11:00.184Z,0
2017-11-26T22:12:10.045Z,0
2017-11-26T22:13:19.859Z,0
2017-11-26T22:14:29.864Z,0
2017-11-26T22:15:39.062Z,0
2017-11-26T22:16:48.593Z,0
2017-11-26T22:17:58.658Z,0
2017-11-26T22:19:08.735Z,0
2017-11-26T22:20:18.538Z,0
2017-11-26T22:21:28.283Z,0
2017-11-26T22:22:38.309Z,0
2017-11-26T22:23:48.067Z,0
2017-11-26T22:24:57.542Z,0
2017-11-26T22:26:07.582Z,0
2017-11-26T22:27:17.074Z,0
2017-11-26T22:28:26.836Z,0
2017-11-26T22:29:36.608Z,0
2017-11-26T22:30:46.345Z,0
2017-11-26T22:31:56.083Z,0
2017-11-26T22:33:05.981Z,0
2017-11-26T22:34:15.725Z,0
2017-11-26T22:35:25.466Z,0
2017-11-26T22:36:35.009Z,0
2017-11-26T22:37:44.765Z,0
2017-11-26T22:38:54.787Z,0
2017-11-26T22:40:04.255Z,0
2017-11-26T22:41:14.455Z,0
2017-11-26T22:42:24.955Z,0
2017-11-26T22:43:34.168Z,0
2017-11-26T22:44:44.273Z,0
2017-11-26T22:45:54.324Z,0
2017-11-26T22:47:04.135Z,0
2017-11-26T22:48:13.676Z,0
2017-11-26T22:49:23.799Z,0
2017-11-26T22:50:33.860Z,0
2017-11-26T22:51:43.907Z,0
2017-11-26T22:52:53.679Z,0
2017-11-26T22:54:03.263Z,0
2017-11-26T22:55:13.359Z,0
2017-11-26T22:56:23.368Z,0
2017-11-26T22:57:33.438Z,0
2017-11-26T22:58:42.686Z,0
2017-11-26T22:59:52.253Z,0
2017-11-26T23:01:02.023Z,0
2017-11-26T23:02:11.571Z,0
2017-11-26T23:03:21.747Z,0
2017-11-26T23:04:31.300Z,0
2017-11-26T23:05:40.759Z,0
2017-11-26T23:06:50.881Z,0
2017-11-26T23:08:00.945Z,0
2017-11-26T23:09:11.066Z,0
2017-11-26T23:10:20.854Z,0
2017-11-26T23:11:30.983Z,0
2017-11-26T23:12:40.468Z,0
2017-11-26T23:13:50.220Z,0
2017-11-26T23:14:59.705Z,0
2017-11-26T23:16:09.762Z,0
2017-11-26T23:17:19.796Z,0
2017-11-26T23:18:29.372Z,0
2017-11-26T23:19:40.064Z,0
2017-11-26T23:20:49.561Z,0
2017-11-26T23:21:59.622Z,0
2017-11-26T23:23:09.400Z,0
2017-11-26T23:24:19.209Z,0
2017-11-26T23:25:29.011Z,0
2017-11-26T23:26:38.581Z,0
2017-11-26T23:27:48.634Z,0
2017-11-26T23:28:58.677Z,0
2017-11-26T23:30:08.686Z,0
2017-11-26T23:31:18.891Z,0
2017-11-26T23:32:29.108Z,0
2017-11-26T23:33:38.701Z,0
2017-11-26T23:34:48.522Z,0
2017-11-26T23:35:58.563Z,0
2017-11-26T23:37:08.337Z,0
2017-11-26T23:38:18.379Z,0
2017-11-26T23:39:28.425Z,0
2017-11-26T23:40:38.184Z,0
2017-11-26T23:41:47.944Z,0
2017-11-26T23:42:57.706Z,0
2017-11-26T23:44:07.730Z,0
2017-11-26T23:45:17.602Z,0
2017-11-26T23:46:27.612Z,0
2017-11-26T23:47:37.425Z,0
2017-11-26T23:48:47.278Z,0
2017-11-26T23:49:57.100Z,0
2017-11-26T23:51:07.188Z,0
2017-11-26T23:52:16.946Z,0
2017-11-26T23:53:26.483Z,0
2017-11-26T23:54:36.243Z,0
2017-11-26T23:55:45.995Z,0
2017-11-26T23:56:55.745Z,0
2017-11-26T23:58:05.209Z,0
2017-11-26T23:59:14.963Z,0
